Time;durP1;ratioP1;P1;durP2;ratioP2;P2;SDS_P1;SDS_P2;PMS_P1;PMS_P2;Temp;Humidity;BMP_temperature;BMP_pressure;BME280_temperature;BME280_humidity;BME280_pressure;Samples;Min_cycle;Max_cycle;Signal;HPM_P1;HPM_P2
2023/07/10 00:04:41;;;;;;;2.38;1.08;;;;;;;21.10;63.38;101052.47;10371673;28;96760;-88
2023/07/10 00:09:45;;;;;;;2.10;1.30;;;;;;;21.04;63.49;101052.06;10365293;28;96835;-88
2023/07/10 00:14:53;;;;;;;0.80;0.70;;;;;;;20.67;64.27;101045.72;10331008;28;96683;-88
2023/07/10 00:19:57;;;;;;;2.05;0.93;;;;;;;20.39;65.45;101044.06;10331712;28;96856;-89
2023/07/10 00:25:01;;;;;;;3.17;1.02;;;;;;;20.65;64.83;101044.13;10329105;28;96769;-88
2023/07/10 00:30:16;;;;;;;3.13;1.20;;;;;;;20.71;64.50;101039.22;10330743;28;96773;-89
2023/07/10 00:35:23;;;;;;;2.97;1.00;;;;;;;20.43;65.08;101035.88;10331325;28;96708;-89
2023/07/10 00:40:27;;;;;;;2.25;1.10;;;;;;;20.24;65.59;101044.22;10331225;28;97675;-88
2023/07/10 00:45:34;;;;;;;2.55;1.02;;;;;;;20.36;65.38;101038.06;10329681;28;96765;-89
2023/07/10 00:50:45;;;;;;;3.33;1.15;;;;;;;20.26;65.48;101034.28;10330643;28;96779;-89
2023/07/10 00:55:52;;;;;;;2.70;1.10;;;;;;;20.30;65.41;101038.50;10329669;28;96715;-89
2023/07/10 01:01:04;;;;;;;1.58;1.00;;;;;;;20.42;64.97;101031.47;10329923;28;96871;-88
2023/07/10 01:06:14;;;;;;;2.28;1.30;;;;;;;20.28;65.62;101030.56;10330244;28;96708;-89
2023/07/10 01:11:21;;;;;;;2.47;1.20;;;;;;;19.89;66.57;101029.69;10328216;28;96626;-89
2023/07/10 01:16:30;;;;;;;2.55;1.40;;;;;;;20.15;66.25;101021.63;10329823;28;96593;-88
2023/07/10 01:21:40;;;;;;;1.63;1.15;;;;;;;20.39;65.48;101017.34;10329641;28;96649;-88
2023/07/10 01:26:44;;;;;;;2.38;1.25;;;;;;;20.34;65.68;101024.81;10337213;28;96749;-89
2023/07/10 01:31:50;;;;;;;;;;;;;;;19.88;66.43;101012.78;10371537;28;96608;-89
2023/07/10 01:36:58;;;;;;;1.70;0.95;;;;;;;19.86;66.48;101008.47;10372135;28;96752;-89
2023/07/10 01:42:03;;;;;;;2.42;1.10;;;;;;;19.89;66.25;101011.81;10377481;28;96819;-89
2023/07/10 01:47:10;;;;;;;1.98;1.10;;;;;;;19.55;66.93;101006.09;10375918;28;97684;-90
2023/07/10 01:52:20;;;;;;;2.28;1.17;;;;;;;19.91;66.51;101004.56;10377288;28;96754;-90
2023/07/10 01:57:25;;;;;;;3.50;1.17;;;;;;;20.11;65.72;100996.09;10376564;28;96741;-89
2023/07/10 02:02:30;;;;;;;1.90;1.05;;;;;;;20.00;66.13;100995.94;10375987;28;96780;-89
2023/07/10 02:07:37;;;;;;;2.42;1.27;;;;;;;19.53;66.92;100997.34;10376890;28;96632;-89
2023/07/10 02:12:41;;;;;;;2.28;1.20;;;;;;;19.47;67.31;100987.06;10342091;28;96847;-89
2023/07/10 02:17:46;;;;;;;2.20;0.95;;;;;;;19.42;67.22;100992.69;10344307;28;97110;-89
2023/07/10 02:22:53;;;;;;;2.97;1.33;;;;;;;19.34;67.47;100996.78;10376339;28;96967;-89
2023/07/10 02:27:58;;;;;;;2.22;1.00;;;;;;;19.74;66.60;101001.28;10376315;28;96591;-90
2023/07/10 02:33:03;;;;;;;2.05;1.27;;;;;;;19.84;66.32;100997.06;10376654;28;97182;-90
2023/07/10 02:38:11;;;;;;;2.53;1.30;;;;;;;19.84;66.55;100997.91;10374054;28;97661;-88
2023/07/10 02:43:15;;;;;;;2.80;1.23;;;;;;;19.69;67.10;100996.25;10375553;28;96671;-88
2023/07/10 02:48:19;;;;;;;1.95;1.30;;;;;;;19.52;67.77;101003.63;10374521;28;96598;-88
2023/07/10 02:53:25;;;;;;;2.65;1.38;;;;;;;19.74;67.35;101002.16;10338776;28;97686;-91
2023/07/10 02:58:29;;;;;;;3.92;1.27;;;;;;;19.79;66.59;101002.69;10336253;28;96541;-88
2023/07/10 03:03:34;;;;;;;5.25;1.50;;;;;;;19.77;66.13;101001.94;10341170;28;96616;-92
2023/07/10 03:08:43;;;;;;;2.30;1.20;;;;;;;19.63;66.69;101007.31;10335450;28;96624;-88
2023/07/10 03:13:47;;;;;;;1.67;1.23;;;;;;;19.47;67.08;100998.59;10333703;28;96923;-88
2023/07/10 03:18:52;;;;;;;2.63;1.13;;;;;;;19.28;67.68;101006.88;10332771;28;96648;-89
2023/07/10 03:23:59;;;;;;;2.03;1.00;;;;;;;19.40;67.43;100997.28;10332792;28;96588;-88
2023/07/10 03:29:08;;;;;;;2.30;1.25;;;;;;;19.28;67.45;101003.38;10332202;28;96825;-88
2023/07/10 03:34:13;;;;;;;2.15;1.10;;;;;;;19.34;67.14;101002.13;10332212;28;96659;-89
2023/07/10 03:39:19;;;;;;;2.97;1.02;;;;;;;19.26;67.16;100992.78;10332824;28;96553;-89
2023/07/10 03:44:23;;;;;;;2.70;1.10;;;;;;;19.04;67.73;100992.41;10336851;28;97386;-88
2023/07/10 03:49:28;;;;;;;2.10;1.10;;;;;;;18.99;67.77;100996.34;10332673;28;96676;-90
2023/07/10 03:54:35;;;;;;;;;;;;;;;18.99;67.87;100993.69;10334416;28;96654;-91
2023/07/10 03:59:40;;;;;;;1.83;1.17;;;;;;;19.04;67.02;100989.75;10332801;28;97628;-89
2023/07/10 04:04:45;;;;;;;1.48;1.00;;;;;;;18.92;67.09;100985.19;10336547;28;97261;-90
2023/07/10 04:09:53;;;;;;;1.27;0.98;;;;;;;18.73;67.44;100989.09;10337927;28;97390;-94
2023/07/10 04:14:57;;;;;;;1.58;1.17;;;;;;;18.61;68.26;100984.50;10344795;28;97175;-92
2023/07/10 04:20:04;;;;;;;2.80;1.38;;;;;;;18.63;67.84;100982.59;10338664;28;98548;-88
2023/07/10 04:25:11;;;;;;;1.65;0.98;;;;;;;18.59;67.55;100981.91;10330915;28;97868;-88
2023/07/10 04:30:16;;;;;;;2.75;1.00;;;;;;;18.54;68.20;100992.00;10331697;28;96563;-88
2023/07/10 04:35:21;;;;;;;2.58;1.05;;;;;;;18.54;67.53;100992.00;10362301;28;96947;-91
2023/07/10 04:40:29;;;;;;;2.58;1.35;;;;;;;18.61;67.37;100996.00;10372756;28;96611;-93
2023/07/10 04:45:33;;;;;;;1.88;1.00;;;;;;;18.51;67.90;100988.66;10384724;28;96640;-92
2023/07/10 04:50:38;;;;;;;2.55;1.50;;;;;;;18.36;68.58;100981.56;10362252;28;96770;-88
2023/07/10 04:55:46;;;;;;;2.45;0.93;;;;;;;18.18;68.63;100988.84;10330691;28;97082;-88
2023/07/10 05:00:54;;;;;;;1.58;1.08;;;;;;;17.97;68.83;100998.09;10329920;28;96750;-89
2023/07/10 05:06:00;;;;;;;2.10;0.95;;;;;;;18.29;68.19;100997.06;10332488;28;96556;-89
2023/07/10 05:11:07;;;;;;;2.00;1.10;;;;;;;18.32;67.50;100998.69;10335684;28;96714;-89
2023/07/10 05:16:12;;;;;;;1.65;1.10;;;;;;;18.18;67.71;100991.50;10338274;28;96722;-88
2023/07/10 05:21:17;;;;;;;2.97;1.20;;;;;;;18.42;67.33;100986.53;10336628;28;96553;-88
2023/07/10 05:26:23;;;;;;;2.40;1.20;;;;;;;18.48;66.85;100988.84;10336952;28;96666;-88
2023/07/10 05:31:27;;;;;;;1.60;1.10;;;;;;;18.37;67.14;100991.28;10343499;28;97011;-91
2023/07/10 05:36:32;;;;;;;1.38;1.00;;;;;;;18.25;67.76;100986.69;10351063;28;96719;-88
2023/07/10 05:41:39;;;;;;;2.83;1.08;;;;;;;18.08;68.17;100985.88;10342438;28;96815;-92
2023/07/10 05:46:43;;;;;;;1.98;1.10;;;;;;;18.10;68.25;100988.44;10343461;28;96696;-91
2023/07/10 05:51:48;;;;;;;1.80;1.15;;;;;;;17.85;69.26;100978.38;10341902;28;96641;-92
2023/07/10 05:56:56;;;;;;;1.77;0.82;;;;;;;17.90;69.05;100984.28;10347019;28;96806;-92
2023/07/10 06:02:02;;;;;;;3.38;0.90;;;;;;;18.09;68.40;100990.25;10379011;28;97433;-94
2023/07/10 06:07:07;;;;;;;2.45;1.27;;;;;;;18.12;68.39;101003.38;10386163;28;96965;-93
2023/07/10 06:12:13;;;;;;;2.17;1.13;;;;;;;18.15;69.13;100995.22;10387178;28;96793;-90
2023/07/10 06:17:17;;;;;;;2.08;1.20;;;;;;;18.25;68.75;100998.19;10384620;28;96733;-91
2023/07/10 06:22:22;;;;;;;4.55;1.58;;;;;;;18.31;68.81;100997.84;10382560;28;97396;-94
2023/07/10 06:27:27;;;;;;;2.72;1.40;;;;;;;18.30;69.59;101003.28;10382082;28;96622;-91
2023/07/10 06:32:34;;;;;;;1.70;1.17;;;;;;;18.54;68.30;101007.16;10386534;28;97468;-93
2023/07/10 06:37:38;;;;;;;3.38;1.23;;;;;;;18.95;67.46;101010.81;10383981;28;96752;-91
2023/07/10 06:42:49;;;;;;;1.58;1.20;;;;;;;19.10;66.72;101012.50;10382665;28;96753;-92
2023/07/10 06:47:53;;;;;;;3.05;1.15;;;;;;;19.21;66.23;101016.25;10383957;28;96625;-93
2023/07/10 06:52:57;;;;;;;2.63;1.63;;;;;;;19.38;66.58;101008.97;10321578;22;97166;-90
2023/07/10 06:58:18;;;;;;;1.92;1.10;;;;;;;19.44;66.58;101004.13;10341804;28;96737;-95
2023/07/10 07:03:21;;;;;;;;;;;;;;;19.82;65.36;100994.47;10338818;28;97658;-91
2023/07/10 07:08:26;;;;;;;1.75;1.08;;;;;;;19.98;64.56;100986.28;10345424;28;96747;-94
2023/07/10 07:13:31;;;;;;;2.53;1.27;;;;;;;20.26;64.14;100984.34;10319743;28;97069;-92
2023/07/10 07:18:34;;;;;;;1.85;1.25;;;;;;;20.15;64.95;100978.03;10338044;28;97286;-91
2023/07/10 07:23:37;;;;;;;2.80;1.08;;;;;;;20.40;63.81;100983.44;10346493;28;96837;-92
2023/07/10 07:28:44;;;;;;;1.80;1.10;;;;;;;20.50;63.38;100965.78;10383406;28;97394;-91
2023/07/10 07:33:49;;;;;;;3.17;1.55;;;;;;;20.45;62.77;100961.72;10381353;28;97067;-93
2023/07/10 07:38:52;;;;;;;1.83;1.10;;;;;;;20.79;62.50;100969.13;10380323;28;96582;-95
2023/07/10 07:43:57;;;;;;;2.03;1.27;;;;;;;21.05;61.60;100963.63;10344843;28;97217;-93
2023/07/10 07:49:00;;;;;;;3.42;1.45;;;;;;;21.08;61.15;100973.28;10340410;28;96511;-92
2023/07/10 07:54:07;;;;;;;2.63;1.48;;;;;;;21.26;60.63;100966.63;10340506;28;96933;-93
2023/07/10 07:59:11;;;;;;;1.48;1.35;;;;;;;21.30;60.98;100968.13;10340944;28;96851;-92
2023/07/10 08:04:14;;;;;;;1.98;1.20;;;;;;;21.50;60.58;100970.22;10337997;28;96645;-91
2023/07/10 08:09:18;;;;;;;2.23;1.40;;;;;;;21.79;60.14;100971.59;10341652;28;96692;-93
2023/07/10 08:14:23;;;;;;;2.28;1.38;;;;;;;21.84;59.78;100966.75;10346719;28;97596;-93
2023/07/10 08:19:26;;;;;;;1.20;0.98;;;;;;;22.08;59.63;100961.38;10381147;28;96901;-95
2023/07/10 08:24:29;;;;;;;1.73;1.27;;;;;;;22.29;58.94;100959.75;10380642;28;96859;-94
2023/07/10 08:29:35;;;;;;;3.67;1.67;;;;;;;22.56;58.41;100957.59;10383351;28;96581;-93
2023/07/10 08:34:38;;;;;;;3.03;1.20;;;;;;;22.94;57.79;100936.69;10380407;28;97308;-95
2023/07/10 08:39:42;;;;;;;10.27;1.83;;;;;;;23.13;57.16;100946.81;10384087;28;97389;-94
2023/07/10 08:44:55;;;;;;;3.15;1.50;;;;;;;23.29;57.12;100941.91;10384905;28;96668;-95
2023/07/10 08:50:08;;;;;;;3.63;1.42;;;;;;;23.38;57.07;100939.34;10366386;28;96688;-94
2023/07/10 08:55:14;;;;;;;2.20;1.48;;;;;;;23.54;56.78;100931.75;10345009;28;96611;-93
2023/07/10 09:00:23;;;;;;;1.90;1.38;;;;;;;23.67;56.71;100920.81;10347344;28;96710;-94
2023/07/10 09:05:31;;;;;;;2.63;1.60;;;;;;;23.84;56.79;100927.50;10357425;28;97012;-94
2023/07/10 09:10:40;;;;;;;2.28;1.40;;;;;;;23.86;55.71;100912.94;10388746;28;96643;-93
2023/07/10 09:15:52;;;;;;;2.10;1.35;;;;;;;24.24;55.50;100909.66;10389886;28;96558;-93
2023/07/10 09:21:01;;;;;;;1.85;1.35;;;;;;;24.54;55.15;100902.53;10387067;28;96694;-95
2023/07/10 09:26:12;;;;;;;2.95;1.52;;;;;;;24.50;54.25;100895.72;10353865;28;97398;-96
2023/07/10 09:31:29;;;;;;;2.58;1.23;;;;;;;24.87;53.84;100890.66;10343215;28;96722;-95
2023/07/10 09:36:34;;;;;;;2.90;1.60;;;;;;;25.12;53.33;100887.47;10340959;28;96738;-95
2023/07/10 09:41:41;;;;;;;3.85;1.50;;;;;;;25.22;53.47;100888.38;10315651;28;98151;-96
2023/07/10 09:46:51;;;;;;;1.30;1.15;;;;;;;25.38;52.99;100882.47;10301648;28;97216;-93
2023/07/10 09:51:59;;;;;;;3.72;1.33;;;;;;;25.45;52.20;100879.03;10298153;28;97783;-94
2023/07/10 09:57:06;;;;;;;3.92;1.42;;;;;;;25.65;51.10;100877.22;10310714;28;97032;-94
2023/07/10 10:02:21;;;;;;;2.63;1.40;;;;;;;25.87;51.46;100874.25;10351032;28;97415;-95
2023/07/10 10:07:36;;;;;;;3.08;1.20;;;;;;;25.97;51.42;100872.41;10355723;28;96644;-94
2023/07/10 10:12:41;;;;;;;3.13;1.23;;;;;;;26.25;50.90;100862.56;10340587;28;96962;-94
2023/07/10 10:17:52;;;;;;;2.20;1.48;;;;;;;26.56;49.36;100853.25;10395685;28;96827;-94
2023/07/10 10:22:59;;;;;;;2.67;1.30;;;;;;;26.76;49.98;100858.47;10405371;28;96882;-93
2023/07/10 10:28:19;;;;;;;1.95;1.25;;;;;;;27.00;49.89;100849.78;10406688;28;97336;-94
2023/07/10 10:33:31;;;;;;;2.45;1.40;;;;;;;27.01;49.81;100855.03;10370644;28;97078;-95
2023/07/10 10:38:48;;;;;;;3.20;1.27;;;;;;;27.35;49.02;100843.63;10367481;28;96697;-91
2023/07/10 10:44:02;;;;;;;2.72;1.60;;;;;;;27.45;49.12;100839.00;10364126;28;96562;-93
2023/07/10 10:49:24;;;;;;;3.70;1.50;;;;;;;27.67;47.10;100838.53;10359603;28;96565;-92
2023/07/10 10:54:40;;;;;;;3.45;1.60;;;;;;;27.80;48.75;100828.19;10301031;28;96661;-92
2023/07/10 10:59:58;;;;;;;2.10;1.20;;;;;;;28.07;48.82;100828.91;10304233;28;96666;-92
2023/07/10 11:05:20;;;;;;;2.90;1.45;;;;;;;28.24;47.39;100821.72;10322722;28;96857;-92
2023/07/10 11:10:31;;;;;;;3.67;1.38;;;;;;;28.41;48.21;100818.16;10348171;28;96627;-92
2023/07/10 11:15:37;;;;;;;2.92;1.73;;;;;;;28.58;47.61;100821.81;10360275;28;96624;-93
2023/07/10 11:20:46;;;;;;;2.00;1.35;;;;;;;28.87;46.54;100817.69;10351210;28;97052;-92
2023/07/10 11:26:01;;;;;;;2.88;1.15;;;;;;;29.20;45.75;100805.13;10392051;28;97282;-94
2023/07/10 11:31:37;;;;;;;2.80;1.33;;;;;;;29.48;44.50;100802.94;10396088;28;96834;-93
2023/07/10 11:36:47;;;;;;;2.83;1.23;;;;;;;29.65;44.54;100794.69;10350264;28;96950;-93
2023/07/10 11:42:17;;;;;;;3.20;1.60;;;;;;;29.81;44.83;100788.41;10390371;28;97099;-92
2023/07/10 11:47:28;;;;;;;2.20;1.35;;;;;;;30.18;44.48;100783.25;10389985;28;97103;-91
2023/07/10 11:52:36;;;;;;;2.70;1.80;;;;;;;30.39;44.60;100779.97;10358306;28;96847;-92
2023/07/10 11:57:40;;;;;;;2.40;1.52;;;;;;;30.66;44.54;100768.69;10340936;28;96799;-91
2023/07/10 12:02:48;;;;;;;2.53;1.30;;;;;;;30.76;44.06;100767.47;10338791;28;96798;-93
2023/07/10 12:07:59;;;;;;;1.85;1.30;;;;;;;30.87;43.50;100750.75;10341143;28;96620;-92
2023/07/10 12:13:18;;;;;;;2.13;1.40;;;;;;;31.10;42.51;100746.19;10340272;28;96703;-91
2023/07/10 12:18:28;;;;;;;2.20;1.45;;;;;;;30.98;41.83;100736.75;10341021;28;97770;-89
2023/07/10 12:23:35;;;;;;;3.53;1.50;;;;;;;30.96;42.12;100733.38;10340237;28;96990;-89
2023/07/10 12:28:41;;;;;;;2.88;1.40;;;;;;;30.95;41.66;100731.69;10340746;28;96728;-92
2023/07/10 12:33:49;;;;;;;2.75;1.70;;;;;;;31.00;40.98;100728.44;10384507;28;96722;-92
2023/07/10 12:39:01;;;;;;;2.70;1.60;;;;;;;31.10;38.01;100721.72;10381970;28;96595;-88
2023/07/10 12:44:07;;;;;;;4.18;2.03;;;;;;;31.29;38.26;100707.66;10381720;28;96785;-89
2023/07/10 12:49:16;;;;;;;1.75;1.40;;;;;;;31.26;37.60;100704.47;10324716;28;96907;-94
2023/07/10 12:54:27;;;;;;;2.47;1.23;;;;;;;31.38;36.90;100703.00;10338862;28;96761;-88
2023/07/10 12:59:36;;;;;;;2.72;1.77;;;;;;;31.56;37.06;100692.66;10341091;28;96645;-94
2023/07/10 13:04:42;;;;;;;4.30;2.03;;;;;;;31.61;37.20;100678.47;10358271;28;97542;-90
2023/07/10 13:09:59;;;;;;;2.90;1.75;;;;;;;31.83;37.54;100683.88;10380912;28;96733;-88
2023/07/10 13:15:07;;;;;;;3.10;1.83;;;;;;;31.82;36.78;100675.91;10349828;28;97032;-90
2023/07/10 13:20:21;;;;;;;3.22;1.80;;;;;;;31.89;37.09;100663.25;10342979;28;97218;-91
2023/07/10 13:25:33;;;;;;;2.22;1.90;;;;;;;31.98;36.62;100659.41;10378772;28;97012;-88
2023/07/10 13:30:39;;;;;;;2.78;1.98;;;;;;;32.00;37.10;100665.47;10382440;28;96645;-91
2023/07/10 13:35:44;;;;;;;3.83;1.90;;;;;;;32.12;36.57;100664.81;10385500;28;97501;-92
2023/07/10 13:40:51;;;;;;;4.15;1.77;;;;;;;32.27;37.04;100665.63;10387346;28;96772;-91
2023/07/10 13:45:59;;;;;;;2.53;1.50;;;;;;;32.52;36.70;100660.75;10388104;28;96547;-89
2023/07/10 13:51:04;;;;;;;4.15;2.05;;;;;;;32.69;36.51;100655.91;10370468;28;97016;-91
2023/07/10 13:56:17;;;;;;;4.20;1.83;;;;;;;32.68;36.94;100651.47;10367151;28;96982;-88
2023/07/10 14:01:22;;;;;;;;;;;;;;;32.60;36.12;100655.19;10389295;28;96861;-87
2023/07/10 14:06:32;;;;;;;2.63;2.15;;;;;;;32.57;36.64;100649.28;10387230;28;96610;-87
2023/07/10 14:11:57;;;;;;;4.40;1.83;;;;;;;32.85;36.01;100640.13;10378075;28;96623;-95
2023/07/10 14:17:03;;;;;;;3.50;2.20;;;;;;;32.96;36.62;100631.47;10346606;28;97249;-92
2023/07/10 14:22:12;;;;;;;2.65;1.95;;;;;;;33.05;36.63;100633.00;10344456;28;96888;-89
2023/07/10 14:27:20;;;;;;;3.60;2.28;;;;;;;32.95;36.37;100628.97;10344901;28;97195;-88
2023/07/10 14:32:28;;;;;;;3.67;1.80;;;;;;;33.04;36.42;100619.56;10385893;28;97680;-91
2023/07/10 14:37:33;;;;;;;3.33;2.25;;;;;;;33.03;36.97;100624.22;10385100;28;96936;-91
2023/07/10 14:42:41;;;;;;;3.90;2.38;;;;;;;33.15;36.22;100617.19;10387245;28;97324;-94
2023/07/10 14:47:48;;;;;;;2.60;1.92;;;;;;;33.05;36.69;100618.56;10384584;28;96731;-87
2023/07/10 14:52:54;;;;;;;3.38;2.10;;;;;;;33.15;35.94;100619.06;10354261;28;96799;-93
2023/07/10 14:58:06;;;;;;;4.18;2.60;;;;;;;33.17;35.78;100615.09;10345538;28;96993;-94
2023/07/10 15:03:12;;;;;;;3.28;2.20;;;;;;;33.22;34.89;100614.50;10357147;28;96731;-90
2023/07/10 15:08:25;;;;;;;3.40;2.30;;;;;;;33.20;34.66;100603.78;10385379;28;96929;-91
2023/07/10 15:13:33;;;;;;;4.35;2.35;;;;;;;32.93;34.53;100603.75;10386121;28;97218;-87
2023/07/10 15:18:39;;;;;;;4.38;2.30;;;;;;;33.05;34.74;100603.00;10385270;28;96784;-91
2023/07/10 15:23:44;;;;;;;3.13;1.95;;;;;;;32.78;35.06;100603.78;10300598;28;96836;-89
2023/07/10 15:28:51;;;;;;;4.03;2.08;;;;;;;32.94;34.96;100598.09;10300905;28;96587;-93
2023/07/10 15:33:56;;;;;;;3.47;2.05;;;;;;;32.76;35.57;100607.75;10299350;28;96554;-93
2023/07/10 15:39:00;;;;;;;3.67;2.28;;;;;;;32.77;35.16;100602.13;10360026;28;97478;-90
2023/07/10 15:44:11;;;;;;;3.45;2.00;;;;;;;32.77;35.88;100602.13;10384869;28;96983;-89
2023/07/10 15:49:21;;;;;;;3.47;2.00;;;;;;;32.84;35.44;100602.16;10379729;28;98020;-88
2023/07/10 15:54:26;;;;;;;2.95;1.90;;;;;;;32.51;35.70;100598.25;10340856;28;96941;-91
2023/07/10 15:59:33;;;;;;;4.00;2.08;;;;;;;32.23;34.82;100598.97;10342506;28;97065;-89
2023/07/10 16:04:37;;;;;;;3.10;2.10;;;;;;;32.19;35.81;100594.06;10344075;28;96846;-92
2023/07/10 16:09:41;;;;;;;3.65;2.20;;;;;;;32.08;35.69;100584.53;10342923;28;96690;-91
2023/07/10 16:14:50;;;;;;;2.70;1.95;;;;;;;31.84;36.11;100573.13;10340915;28;96756;-92
2023/07/10 16:19:55;;;;;;;4.50;2.33;;;;;;;31.67;35.92;100572.44;10341421;28;96650;-88
2023/07/10 16:25:00;;;;;;;4.82;1.98;;;;;;;31.52;35.41;100573.47;10339198;28;96628;-92
2023/07/10 16:30:07;;;;;;;4.07;1.90;;;;;;;31.41;36.04;100568.50;10342721;28;96749;-89
2023/07/10 16:35:19;;;;;;;4.68;2.30;;;;;;;31.33;35.63;100562.13;10340338;28;96656;-85
2023/07/10 16:40:27;;;;;;;4.73;2.33;;;;;;;31.24;35.54;100555.06;10340223;28;96671;-93
2023/07/10 16:45:34;;;;;;;4.05;1.98;;;;;;;31.21;35.00;100560.84;10356475;28;97818;-91
2023/07/10 16:50:38;;;;;;;3.50;1.70;;;;;;;31.26;35.29;100552.16;10372218;28;96929;-88
2023/07/10 16:55:44;;;;;;;4.20;1.85;;;;;;;31.08;35.35;100560.63;10341726;28;97080;-93
2023/07/10 17:00:51;;;;;;;3.90;1.83;;;;;;;31.10;34.77;100565.88;10343758;28;96545;-88
2023/07/10 17:05:56;;;;;;;3.42;1.90;;;;;;;30.96;34.67;100567.53;10379538;28;96890;-90
2023/07/10 17:11:03;;;;;;;3.13;1.85;;;;;;;30.95;34.72;100556.84;10388521;28;97174;-93
2023/07/10 17:16:12;;;;;;;4.80;1.85;;;;;;;30.95;34.16;100552.28;10391250;28;97544;-92
2023/07/10 17:21:19;;;;;;;3.00;1.73;;;;;;;31.11;33.97;100545.84;10391225;28;96536;-91
2023/07/10 17:26:23;;;;;;;3.80;1.90;;;;;;;30.97;33.41;100543.94;10390019;28;96729;-88
2023/07/10 17:31:34;;;;;;;2.78;1.48;;;;;;;30.91;33.39;100542.78;10389933;28;97137;-94
2023/07/10 17:36:41;;;;;;;3.97;1.80;;;;;;;30.81;32.67;100547.66;10373874;28;96772;-89
2023/07/10 17:41:47;;;;;;;2.63;1.70;;;;;;;30.76;31.66;100557.38;10346760;28;97283;-92
2023/07/10 17:46:55;;;;;;;2.78;1.70;;;;;;;30.66;32.66;100552.16;10353118;28;96733;-92
2023/07/10 17:52:00;;;;;;;2.75;1.58;;;;;;;30.51;33.04;100537.66;10353732;28;96800;-93
2023/07/10 17:57:14;;;;;;;2.53;1.70;;;;;;;30.33;32.70;100537.13;10388732;28;96861;-91
2023/07/10 18:02:25;;;;;;;2.45;1.50;;;;;;;30.17;32.54;100535.38;10384572;28;96892;-93
2023/07/10 18:07:29;;;;;;;3.28;1.65;;;;;;;30.02;32.91;100541.72;10387801;28;97082;-90
2023/07/10 18:12:34;;;;;;;2.85;1.73;;;;;;;29.82;33.45;100549.44;10355062;28;96729;-91
2023/07/10 18:17:40;;;;;;;3.22;1.40;;;;;;;29.63;33.76;100543.56;10351498;28;96629;-90
2023/07/10 18:22:45;;;;;;;2.50;1.48;;;;;;;29.51;34.40;100536.84;10350327;28;97087;-91
2023/07/10 18:27:49;;;;;;;3.22;1.70;;;;;;;29.32;35.27;100540.75;10365019;28;96709;-93
2023/07/10 18:32:57;;;;;;;2.15;1.35;;;;;;;29.25;35.83;100539.75;10385871;28;96771;-91
2023/07/10 18:38:03;;;;;;;2.92;1.35;;;;;;;29.06;36.36;100543.72;10386260;28;96576;-91
2023/07/10 18:43:11;;;;;;;4.13;1.50;;;;;;;28.84;37.12;100535.41;10381834;28;96741;-92
2023/07/10 18:48:21;;;;;;;3.45;1.30;;;;;;;28.65;38.12;100539.31;10342949;28;96680;-91
2023/07/10 18:53:34;;;;;;;2.60;1.55;;;;;;;28.55;38.32;100543.19;10342758;28;96697;-92
2023/07/10 18:58:41;;;;;;;2.63;1.50;;;;;;;28.46;38.37;100545.03;10342501;28;97129;-94
2023/07/10 19:03:49;;;;;;;2.00;1.15;;;;;;;28.37;39.06;100548.75;10379481;28;97050;-90
2023/07/10 19:08:54;;;;;;;4.00;1.63;;;;;;;28.30;39.40;100555.84;10380906;28;96737;-89
2023/07/10 19:13:58;;;;;;;3.45;1.58;;;;;;;28.17;39.85;100551.91;10364204;28;96813;-91
2023/07/10 19:19:07;;;;;;;2.58;1.42;;;;;;;28.04;40.66;100555.94;10362126;28;96738;-91
2023/07/10 19:24:16;;;;;;;2.83;1.25;;;;;;;27.90;40.88;100547.59;10389311;22;98401;-89
2023/07/10 19:29:19;;;;;;;2.85;1.40;;;;;;;27.91;41.11;100554.69;10379404;28;96673;-89
2023/07/10 19:34:25;;;;;;;3.85;1.58;;;;;;;27.80;41.13;100557.69;10379698;28;96765;-93
2023/07/10 19:39:30;;;;;;;2.13;1.23;;;;;;;27.80;41.34;100558.56;10377593;28;97288;-88
2023/07/10 19:44:53;;;;;;;2.92;1.20;;;;;;;27.55;42.33;100558.56;10373155;28;96663;-87
2023/07/10 19:49:58;;;;;;;2.20;1.20;;;;;;;27.46;42.26;100560.38;10374515;28;97385;-89
2023/07/10 19:55:03;;;;;;;2.38;1.30;;;;;;;27.31;42.97;100553.00;10409786;28;97500;-90
2023/07/10 20:00:08;;;;;;;2.40;1.30;;;;;;;27.20;43.60;100554.13;10415799;28;97216;-89
2023/07/10 20:05:15;;;;;;;2.53;1.30;;;;;;;27.06;43.91;100556.59;10415532;28;96628;-91
2023/07/10 20:10:20;;;;;;;3.00;1.40;;;;;;;26.90;44.66;100551.88;10414933;28;96674;-87
2023/07/10 20:15:25;;;;;;;2.47;1.40;;;;;;;26.64;45.29;100562.66;10413953;28;96943;-86
2023/07/10 20:20:31;;;;;;;2.05;0.98;;;;;;;26.60;45.20;100555.00;10403624;28;96727;-89
2023/07/10 20:25:35;;;;;;;1.80;1.08;;;;;;;26.46;45.43;100559.09;10374848;28;96719;-87
2023/07/10 20:30:38;;;;;;;3.10;1.40;;;;;;;26.31;45.71;100563.31;10376273;28;96889;-88
2023/07/10 20:35:43;;;;;;;2.07;1.10;;;;;;;26.17;46.59;100571.06;10373592;28;97774;-92
2023/07/10 20:40:47;;;;;;;2.67;1.58;;;;;;;25.96;47.34;100576.72;10374093;28;96687;-88
2023/07/10 20:45:56;;;;;;;2.45;1.42;;;;;;;25.89;47.64;100578.31;10371611;28;96843;-89
2023/07/10 20:51:01;;;;;;;3.47;1.45;;;;;;;25.73;48.29;100583.50;10372436;28;96598;-87
2023/07/10 20:56:17;;;;;;;2.33;1.63;;;;;;;25.55;48.77;100583.41;10373215;28;96791;-90
2023/07/10 21:01:22;;;;;;;2.65;1.25;;;;;;;25.31;49.57;100587.63;10398038;28;96685;-92
2023/07/10 21:06:33;;;;;;;3.63;1.70;;;;;;;25.15;49.59;100584.69;10413425;27;96923;-92
2023/07/10 21:11:36;;;;;;;3.15;1.40;;;;;;;24.98;50.29;100585.41;10416034;28;96755;-88
2023/07/10 21:16:40;;;;;;;1.80;1.37;;;;;;;24.79;50.87;100595.19;10416207;27;96701;-90
2023/07/10 21:21:44;;;;;;;2.38;1.60;;;;;;;24.67;51.06;100599.00;10395475;28;96660;-93
2023/07/10 21:26:51;;;;;;;2.78;1.30;;;;;;;24.57;51.57;100594.63;10375433;28;96912;-89
2023/07/10 21:31:55;;;;;;;3.33;1.85;;;;;;;24.50;51.63;100594.34;10377607;28;96663;-92
2023/07/10 21:36:59;;;;;;;3.92;1.73;;;;;;;24.47;51.69;100593.75;10372525;28;96691;-93
2023/07/10 21:42:04;;;;;;;2.75;1.60;;;;;;;24.49;51.57;100599.84;10372662;28;96880;-89
2023/07/10 21:47:11;;;;;;;3.15;1.38;;;;;;;24.40;51.80;100603.38;10370867;28;96698;-95
2023/07/10 21:52:18;;;;;;;1.73;1.27;;;;;;;24.23;52.56;100607.59;10370843;28;97126;-90
2023/07/10 21:57:24;;;;;;;3.50;1.50;;;;;;;24.18;52.50;100606.31;10376972;28;97751;-89
2023/07/10 22:02:28;;;;;;;4.03;1.58;;;;;;;24.12;52.81;100605.00;10379525;28;96878;-92
2023/07/10 22:07:34;;;;;;;2.92;1.40;;;;;;;23.89;53.44;100600.84;10384435;28;96852;-90
2023/07/10 22:12:38;;;;;;;3.20;1.55;;;;;;;23.91;53.28;100603.41;10418182;28;96841;-89
2023/07/10 22:17:42;;;;;;;4.20;1.58;;;;;;;23.89;53.43;100598.16;10375451;28;97658;-89
2023/07/10 22:22:49;;;;;;;;;;;;;;;23.92;54.06;100597.03;10376205;28;97161;-89
2023/07/10 22:27:53;;;;;;;2.25;1.30;;;;;;;23.88;53.29;100598.28;10376651;28;96801;-88
2023/07/10 22:33:00;;;;;;;1.88;1.33;;;;;;;23.73;53.58;100602.34;10376284;28;96708;-87
2023/07/10 22:38:07;;;;;;;3.25;1.80;;;;;;;23.63;53.94;100592.38;10375786;28;96610;-88
2023/07/10 22:43:13;;;;;;;3.75;1.63;;;;;;;23.61;53.87;100588.97;10376074;28;97281;-87
2023/07/10 22:48:17;;;;;;;3.60;1.58;;;;;;;23.72;53.68;100596.09;10375401;28;97306;-87
2023/07/10 22:53:22;;;;;;;2.97;1.93;;;;;;;23.78;53.73;100611.69;10376113;28;97089;-88
2023/07/10 22:58:27;;;;;;;2.45;1.50;;;;;;;23.78;53.84;100598.25;10375569;28;96707;-87
2023/07/10 23:03:31;;;;;;;2.17;1.50;;;;;;;23.68;54.19;100592.84;10375002;28;98005;-88
2023/07/10 23:08:38;;;;;;;4.63;1.77;;;;;;;23.24;55.32;100605.72;10373014;28;96631;-88
2023/07/10 23:13:44;;;;;;;2.55;1.50;;;;;;;23.12;55.84;100604.09;10374381;28;97679;-87
2023/07/10 23:18:53;;;;;;;4.75;1.88;;;;;;;22.78;56.68;100597.22;10409551;28;96800;-89
2023/07/10 23:24:00;;;;;;;4.45;1.98;;;;;;;22.70;56.64;100594.31;10374514;28;97593;-88
2023/07/10 23:29:06;;;;;;;3.22;1.92;;;;;;;22.67;56.94;100600.78;10374236;28;97613;-88
2023/07/10 23:34:12;;;;;;;3.10;1.48;;;;;;;22.86;56.45;100594.75;10374489;28;97865;-88
2023/07/10 23:39:20;;;;;;;3.88;1.73;;;;;;;22.67;56.88;100595.41;10373956;28;97153;-88